ENFB

Details ICAO ENFB (FBU)
Name [X] Oslo Fornebu
Region Norway
Timezone Europe/Oslo (UTC+1.0)
Plans Departing 17
Arriving 19
Stats Elevation 52 ft / 16 m (AMSL)
Location 59.896160° 10.615832°
Runways 2
Magnetic Variation 3.168° E
Sunrise 2017-12-13 08:12:51 UTC / 2017-12-13 09:12:51 Local
Sunset 2017-12-13 14:13:26 UTC / 2017-12-13 15:13:26 Local
Advertisement - Login to hide

Runways

ID Width Length Bearing (true) Bearing (mag) Surface Threshold Offset Overrun Length
01 150 ft / 46 m 6,076 ft / 1,852 m 5.47° 2.30° Asphalt 0 ft / 0 m 0 ft / 0 m
06 150 ft / 46 m 8,008 ft / 2,441 m 57.98° 54.81° Asphalt 0 ft / 0 m 0 ft / 0 m
19 150 ft / 46 m 6,076 ft / 1,852 m 185.47° 182.30° Asphalt 0 ft / 0 m 0 ft / 0 m
24 150 ft / 46 m 8,008 ft / 2,441 m 238.02° 234.85° Asphalt 0 ft / 0 m 0 ft / 0 m

Map

Weather


0- 5 10 15 20 25 30 35+ Temperature / ° C

Clouds and Precipitation
Forecast for 2017-12-13 06:00 UTC. Updated 2 hours ago

Ground ~20,000 ft ~40,000 ft Winds

METAR

ENFB 130650Z AUTO 19025KT 9999NDV -RA BKN012/// 06/04 Q0981 W///S4

TAF

Not found
Warning: Do not use this data for real-world aviation or navigation. No guarantee of current accuracy is given.